createdAt,value
2022-12-18T00:01:26.163Z,49.07
2022-12-18T00:03:54.218Z,53.45
2022-12-18T00:06:21.726Z,44.05
2022-12-18T00:08:48.798Z,48.78
2022-12-18T00:11:20.960Z,51.30
2022-12-18T00:13:47.922Z,54.90
2022-12-18T00:16:18.045Z,51.00
2022-12-18T00:18:44.475Z,47.13
2022-12-18T00:21:12.435Z,45.58
2022-12-18T00:23:40.583Z,56.13
2022-12-18T00:26:11.350Z,57.10
2022-12-18T00:28:37.828Z,51.58
2022-12-18T00:31:08.756Z,50.70
2022-12-18T00:33:36.962Z,50.85
2022-12-18T00:36:05.810Z,56.53
2022-12-18T00:38:32.482Z,45.90
2022-12-18T00:40:59.269Z,41.72
2022-12-18T00:43:25.910Z,46.03
2022-12-18T00:45:52.351Z,52.22
2022-12-18T00:48:18.767Z,51.92
2022-12-18T00:50:45.506Z,42.87
2022-12-18T00:53:12.718Z,38.65
2022-12-18T00:55:40.839Z,38.08
2022-12-18T00:58:07.458Z,40.78
2022-12-18T01:00:33.904Z,44.55
2022-12-18T01:03:00.441Z,46.37
2022-12-18T01:05:27.308Z,37.78
2022-12-18T01:07:53.742Z,46.92
2022-12-18T01:10:20.373Z,42.03
2022-12-18T01:12:46.851Z,44.60
2022-12-18T01:15:15.574Z,46.47
2022-12-18T01:17:42.285Z,45.30
2022-12-18T01:20:10.208Z,41.60
2022-12-18T01:22:36.887Z,38.75
2022-12-18T01:25:05.196Z,44.58
2022-12-18T01:27:33.852Z,40.20
2022-12-18T01:30:00.263Z,45.03
2022-12-18T01:32:26.814Z,39.85
2022-12-18T01:34:53.097Z,44.50
2022-12-18T01:37:19.464Z,50.00
2022-12-18T01:39:45.870Z,45.37
2022-12-18T01:42:14.731Z,45.70
2022-12-18T01:44:59.708Z,37.97
2022-12-18T01:47:25.952Z,47.10
2022-12-18T01:49:53.045Z,39.72
2022-12-18T01:52:20.886Z,43.43
2022-12-18T01:54:49.683Z,36.20
2022-12-18T01:57:16.121Z,46.95
2022-12-18T01:59:46.128Z,37.53
2022-12-18T02:02:12.926Z,40.15
2022-12-18T02:04:47.802Z,45.63
2022-12-18T02:07:33.486Z,43.95
2022-12-18T02:10:07.490Z,42.83
2022-12-18T02:13:09.080Z,42.00
2022-12-18T02:16:02.174Z,41.05
2022-12-18T02:18:34.460Z,41.40
2022-12-18T02:21:41.408Z,39.50
2022-12-18T02:24:15.956Z,42.05
2022-12-18T02:26:56.680Z,40.22
2022-12-18T02:29:58.153Z,35.65
2022-12-18T02:32:28.570Z,39.73
2022-12-18T02:34:57.217Z,32.88
2022-12-18T02:37:25.895Z,43.78
2022-12-18T02:39:56.237Z,35.22
2022-12-18T02:42:23.544Z,38.45
2022-12-18T02:44:52.356Z,44.60
2022-12-18T02:47:22.772Z,39.28
2022-12-18T02:50:07.378Z,38.42
2022-12-18T02:52:54.525Z,48.45
2022-12-18T02:55:42.632Z,46.22
2022-12-18T02:58:33.431Z,45.13
2022-12-18T03:01:14.826Z,35.55
2022-12-18T03:03:55.822Z,38.45
2022-12-18T03:06:29.657Z,34.30
2022-12-18T03:09:03.219Z,41.95
2022-12-18T03:11:34.763Z,46.00
2022-12-18T03:14:01.519Z,38.35
2022-12-18T03:16:32.038Z,33.08
2022-12-18T03:19:19.249Z,30.77
2022-12-18T03:21:55.224Z,37.13
2022-12-18T03:24:23.566Z,36.70
2022-12-18T03:27:07.011Z,41.03
2022-12-18T03:29:58.889Z,36.50
2022-12-18T03:32:31.815Z,34.45
2022-12-18T03:35:04.032Z,37.47
2022-12-18T03:37:30.427Z,35.33
2022-12-18T03:39:56.870Z,45.63
2022-12-18T03:42:44.697Z,37.25
2022-12-18T03:45:27.275Z,36.25
2022-12-18T03:48:02.379Z,31.80
2022-12-18T03:50:37.794Z,35.17
2022-12-18T03:53:28.275Z,40.20
2022-12-18T03:55:56.259Z,44.30
2022-12-18T03:58:26.513Z,33.33
2022-12-18T04:00:56.779Z,33.08
2022-12-18T04:03:26.713Z,41.13
2022-12-18T04:05:56.262Z,35.00
2022-12-18T04:08:24.741Z,33.38
2022-12-18T04:10:51.050Z,32.05
2022-12-18T04:13:32.939Z,38.85
2022-12-18T04:15:59.293Z,36.70
2022-12-18T04:18:25.684Z,33.42
2022-12-18T04:20:52.244Z,32.60
2022-12-18T04:23:18.936Z,32.47
2022-12-18T04:25:45.978Z,35.88
2022-12-18T04:28:12.239Z,37.20
2022-12-18T04:30:38.547Z,36.05
2022-12-18T04:33:04.920Z,28.30
2022-12-18T04:35:31.308Z,30.20
2022-12-18T04:37:57.634Z,28.38
2022-12-18T04:40:23.987Z,29.73
2022-12-18T04:42:50.373Z,28.33
2022-12-18T04:45:16.921Z,30.35
2022-12-18T04:47:43.189Z,31.20
2022-12-18T04:50:09.909Z,30.80
2022-12-18T04:52:36.408Z,33.70
2022-12-18T04:55:02.943Z,33.53
2022-12-18T04:57:29.360Z,24.60
2022-12-18T04:59:55.787Z,29.73
2022-12-18T05:02:22.312Z,29.88
2022-12-18T05:04:48.857Z,27.50
2022-12-18T05:07:15.243Z,26.48
2022-12-18T05:09:41.665Z,26.33
2022-12-18T05:12:08.172Z,21.23
2022-12-18T05:14:34.590Z,33.47
2022-12-18T05:17:01.422Z,26.37
2022-12-18T05:19:27.927Z,23.02
2022-12-18T05:21:54.284Z,28.52
2022-12-18T05:24:20.727Z,30.58
2022-12-18T05:26:47.185Z,28.35
2022-12-18T05:29:13.535Z,23.73
2022-12-18T05:31:40.701Z,25.65
2022-12-18T05:34:08.598Z,30.40
2022-12-18T05:36:35.119Z,26.75
2022-12-18T05:39:01.607Z,23.40
2022-12-18T05:41:28.369Z,27.23
2022-12-18T05:43:54.697Z,27.27
2022-12-18T05:46:21.067Z,26.65
2022-12-18T05:48:47.938Z,25.13
2022-12-18T05:51:16.680Z,26.48
2022-12-18T05:53:43.826Z,24.87
2022-12-18T05:56:14.172Z,24.30
2022-12-18T05:58:40.920Z,30.88
2022-12-18T06:01:08.488Z,27.05
2022-12-18T06:03:35.112Z,22.10
2022-12-18T06:06:01.553Z,23.30
2022-12-18T06:08:28.107Z,26.00
2022-12-18T06:10:54.471Z,25.70
2022-12-18T06:13:21.811Z,24.85
2022-12-18T06:15:48.436Z,20.52
2022-12-18T06:18:14.825Z,24.53
2022-12-18T06:20:41.133Z,24.75
2022-12-18T06:23:07.669Z,20.50
2022-12-18T06:25:38.908Z,19.90
2022-12-18T06:28:05.438Z,22.80
2022-12-18T06:30:31.738Z,18.00
2022-12-18T06:32:58.057Z,24.08
2022-12-18T06:35:24.682Z,21.92
2022-12-18T06:37:51.026Z,20.02
2022-12-18T06:40:17.570Z,20.30
2022-12-18T06:42:43.920Z,19.40
2022-12-18T06:45:10.695Z,24.67
2022-12-18T06:47:37.062Z,18.13
2022-12-18T06:50:03.735Z,24.67
2022-12-18T06:52:32.821Z,21.02
2022-12-18T06:54:59.219Z,16.57
2022-12-18T06:57:25.573Z,20.55
2022-12-18T06:59:51.883Z,18.15
2022-12-18T07:02:18.360Z,17.73
2022-12-18T07:04:44.763Z,22.75
2022-12-18T07:07:11.165Z,18.27
2022-12-18T07:09:37.628Z,20.13
2022-12-18T07:12:04.138Z,18.48
2022-12-18T07:14:30.530Z,19.90
2022-12-18T07:16:56.891Z,19.83
2022-12-18T07:19:23.421Z,18.53
2022-12-18T07:21:51.711Z,18.42
2022-12-18T07:24:18.232Z,18.63
2022-12-18T07:26:47.031Z,15.18
2022-12-18T07:29:13.770Z,15.82
2022-12-18T07:31:40.240Z,21.83
2022-12-18T07:34:10.295Z,20.05
2022-12-18T07:36:36.572Z,16.65
2022-12-18T07:39:02.927Z,18.35
2022-12-18T07:41:29.239Z,20.58
2022-12-18T07:43:55.554Z,16.33
2022-12-18T07:46:22.198Z,18.55
2022-12-18T07:48:49.713Z,20.08
2022-12-18T07:51:17.556Z,16.27
2022-12-18T07:53:44.942Z,17.23
2022-12-18T07:56:32.401Z,16.47
2022-12-18T07:58:59.867Z,13.10
2022-12-18T08:01:26.792Z,14.27
2022-12-18T08:03:53.548Z,15.05
2022-12-18T08:06:24.334Z,19.63
2022-12-18T08:08:55.243Z,21.13
2022-12-18T08:11:22.626Z,16.98
2022-12-18T08:13:49.427Z,20.40
2022-12-18T08:16:16.549Z,16.50
2022-12-18T08:18:42.958Z,15.18
2022-12-18T08:21:17.670Z,15.87
2022-12-18T08:23:44.664Z,12.98
2022-12-18T08:26:12.388Z,13.77
2022-12-18T08:28:38.761Z,16.23
2022-12-18T08:31:05.370Z,18.27
2022-12-18T08:33:32.373Z,17.43
2022-12-18T08:36:03.181Z,16.42
2022-12-18T08:38:29.501Z,20.92
2022-12-18T08:41:03.658Z,16.00
2022-12-18T08:43:30.073Z,18.17
2022-12-18T08:45:56.681Z,15.77
2022-12-18T08:48:23.011Z,15.95
2022-12-18T08:50:59.119Z,17.00
2022-12-18T08:53:25.908Z,17.23
2022-12-18T08:55:52.758Z,15.80
2022-12-18T08:58:19.301Z,18.57
2022-12-18T09:00:45.764Z,18.02
2022-12-18T09:03:16.977Z,16.27
2022-12-18T09:05:43.932Z,17.15
2022-12-18T09:08:10.413Z,16.30
2022-12-18T09:10:44.080Z,17.53
2022-12-18T09:13:11.689Z,15.60
2022-12-18T09:15:49.775Z,18.17
2022-12-18T09:18:17.649Z,17.77
2022-12-18T09:20:45.127Z,14.80
2022-12-18T09:23:12.511Z,18.23
2022-12-18T09:25:39.284Z,15.25
2022-12-18T09:28:17.793Z,19.10
2022-12-18T09:30:49.107Z,17.83
2022-12-18T09:33:16.418Z,16.17
2022-12-18T09:35:44.665Z,18.80
2022-12-18T09:38:13.986Z,15.35
2022-12-18T09:40:57.873Z,15.02
2022-12-18T09:43:30.914Z,15.75
2022-12-18T09:46:05.890Z,19.52
2022-12-18T09:48:38.028Z,15.83
2022-12-18T09:51:34.781Z,15.77
2022-12-18T09:54:05.914Z,18.20
2022-12-18T09:56:36.947Z,15.98
2022-12-18T09:59:05.410Z,15.40
2022-12-18T10:01:41.551Z,17.93
2022-12-18T10:04:10.849Z,15.73
2022-12-18T10:07:03.122Z,19.13
2022-12-18T10:10:03.925Z,21.42
2022-12-18T10:12:50.036Z,22.17
2022-12-18T10:16:00.270Z,19.27
2022-12-18T10:18:43.661Z,18.85
2022-12-18T10:21:19.335Z,21.92
2022-12-18T10:23:48.323Z,18.42
2022-12-18T10:26:15.354Z,19.00
2022-12-18T10:28:43.760Z,19.80
2022-12-18T10:31:17.926Z,17.55
2022-12-18T10:33:44.643Z,18.42
2022-12-18T10:36:10.982Z,17.90
2022-12-18T10:38:38.242Z,15.77
2022-12-18T10:41:07.955Z,17.77
2022-12-18T10:43:37.762Z,12.90
2022-12-18T10:46:10.299Z,16.17
2022-12-18T10:48:48.543Z,16.15
2022-12-18T10:51:35.189Z,17.20
2022-12-18T10:54:06.255Z,16.17
2022-12-18T10:56:36.440Z,21.30
2022-12-18T10:59:05.968Z,18.08
2022-12-18T11:01:48.906Z,19.02
2022-12-18T11:04:33.565Z,17.20
2022-12-18T11:07:05.942Z,17.70
2022-12-18T11:09:37.461Z,15.48
2022-12-18T11:12:15.258Z,15.23
2022-12-18T11:14:53.050Z,14.95
2022-12-18T11:17:26.857Z,14.60
2022-12-18T11:20:01.989Z,17.47
2022-12-18T11:22:34.273Z,14.27
2022-12-18T11:25:32.637Z,11.85
2022-12-18T11:28:02.273Z,21.65
2022-12-18T11:30:35.215Z,19.58
2022-12-18T11:33:21.344Z,16.27
2022-12-18T11:35:55.673Z,14.50
2022-12-18T11:38:25.586Z,20.02
2022-12-18T11:41:19.705Z,17.42
2022-12-18T11:44:04.379Z,18.65
2022-12-18T11:46:38.828Z,17.47
2022-12-18T11:49:23.212Z,16.08
2022-12-18T11:51:56.653Z,19.42
2022-12-18T11:54:23.076Z,15.68
2022-12-18T11:56:56.943Z,17.35
2022-12-18T11:59:33.987Z,17.93
2022-12-18T12:02:03.197Z,18.55
2022-12-18T12:04:39.824Z,16.20
2022-12-18T12:07:24.814Z,19.15
2022-12-18T12:10:11.374Z,16.00
2022-12-18T12:12:49.124Z,17.30
2022-12-18T12:15:35.230Z,18.05
2022-12-18T12:18:23.722Z,14.20
2022-12-18T12:21:17.590Z,19.50
2022-12-18T12:23:59.198Z,13.35
2022-12-18T12:26:36.741Z,16.90
2022-12-18T12:29:21.113Z,16.88
2022-12-18T12:32:03.908Z,19.05
2022-12-18T12:34:39.263Z,22.35
2022-12-18T12:37:05.545Z,18.98
2022-12-18T12:39:37.453Z,20.20
2022-12-18T12:42:16.263Z,17.15
2022-12-18T12:44:59.481Z,18.55
2022-12-18T12:47:34.540Z,16.05
2022-12-18T12:50:07.954Z,18.15
2022-12-18T12:52:46.073Z,18.73
2022-12-18T12:55:21.515Z,17.60
2022-12-18T12:58:32.280Z,20.00
2022-12-18T13:01:42.995Z,13.88
2022-12-18T13:04:31.897Z,17.00
2022-12-18T13:07:04.833Z,16.07
2022-12-18T13:12:21.459Z,17.90
2022-12-18T13:13:45.029Z,18.10
2022-12-18T13:14:48.247Z,19.45
2022-12-18T13:17:15.434Z,17.73
2022-12-18T13:19:42.561Z,16.70
2022-12-18T13:22:35.913Z,15.18
2022-12-18T13:25:03.617Z,17.88
2022-12-18T13:27:45.306Z,19.60
2022-12-18T13:30:33.435Z,18.98
2022-12-18T13:33:15.250Z,19.50
2022-12-18T13:35:57.461Z,19.63
2022-12-18T13:38:26.749Z,19.75
2022-12-18T13:41:01.317Z,17.40
2022-12-18T13:43:44.189Z,19.80
2022-12-18T13:46:31.723Z,20.57
2022-12-18T13:49:06.976Z,23.50
2022-12-18T13:51:35.228Z,19.00
2022-12-18T13:54:07.065Z,26.30
2022-12-18T13:56:34.404Z,16.67
2022-12-18T13:59:25.171Z,20.83
2022-12-18T14:01:53.917Z,19.48
2022-12-18T14:04:25.032Z,18.10
2022-12-18T14:06:56.031Z,19.15
2022-12-18T14:09:34.829Z,18.38
2022-12-18T14:12:03.803Z,19.03
2022-12-18T14:14:33.816Z,17.08
2022-12-18T14:17:01.679Z,19.98
2022-12-18T14:19:28.817Z,20.50
2022-12-18T14:21:55.320Z,19.05
2022-12-18T14:24:22.854Z,18.23
2022-12-18T14:26:50.976Z,21.50
2022-12-18T14:29:26.666Z,19.90
2022-12-18T14:32:18.338Z,21.88
2022-12-18T14:34:54.620Z,16.35
2022-12-18T14:37:24.619Z,19.03
2022-12-18T14:39:59.400Z,19.13
2022-12-18T14:42:27.842Z,23.98
2022-12-18T14:45:41.676Z,18.83
2022-12-18T14:48:37.076Z,18.98
2022-12-18T14:51:27.890Z,18.37
2022-12-18T14:53:57.205Z,17.13
2022-12-18T14:56:27.174Z,18.40
2022-12-18T14:59:02.071Z,15.50
2022-12-18T15:01:33.922Z,22.33
2022-12-18T15:04:01.746Z,22.93
2022-12-18T15:06:38.977Z,21.35
2022-12-18T15:09:26.573Z,22.77
2022-12-18T15:12:01.164Z,20.75
2022-12-18T15:14:40.522Z,21.30
2022-12-18T15:17:27.288Z,18.73
2022-12-18T15:20:00.877Z,17.60
2022-12-18T15:22:29.395Z,17.45
2022-12-18T15:24:57.372Z,22.30
2022-12-18T15:27:34.528Z,22.40
2022-12-18T15:30:03.715Z,18.43
2022-12-18T15:32:30.021Z,21.48
2022-12-18T15:35:25.217Z,21.30
2022-12-18T15:37:52.825Z,21.63
2022-12-18T15:40:22.052Z,18.77
2022-12-18T15:42:49.260Z,19.43
2022-12-18T15:45:15.938Z,17.83
2022-12-18T15:47:42.450Z,18.20
2022-12-18T15:50:09.583Z,17.10
2022-12-18T15:52:42.579Z,18.05
2022-12-18T15:55:24.146Z,22.03
2022-12-18T15:57:50.535Z,22.10
2022-12-18T16:00:17.177Z,22.77
2022-12-18T16:02:43.783Z,22.30
2022-12-18T16:05:16.790Z,16.90
2022-12-18T16:07:43.403Z,20.40
2022-12-18T16:10:10.317Z,22.67
2022-12-18T16:12:37.379Z,21.60
2022-12-18T16:15:05.396Z,20.75
2022-12-18T16:17:32.586Z,23.73
2022-12-18T16:19:59.196Z,23.53
2022-12-18T16:22:30.252Z,20.52
2022-12-18T16:24:57.845Z,21.35
2022-12-18T16:27:25.617Z,24.58
2022-12-18T16:29:51.986Z,19.38
2022-12-18T16:32:21.649Z,25.60
2022-12-18T16:34:48.150Z,22.85
2022-12-18T16:37:16.392Z,22.77
2022-12-18T16:39:43.119Z,19.88
2022-12-18T16:42:16.792Z,25.52
2022-12-18T16:44:44.648Z,20.73
2022-12-18T16:47:11.096Z,23.00
2022-12-18T16:49:40.659Z,23.17
2022-12-18T16:52:07.419Z,20.05
2022-12-18T16:54:34.189Z,25.13
2022-12-18T16:57:00.952Z,24.50
2022-12-18T16:59:27.780Z,21.63
2022-12-18T17:01:54.958Z,19.10
2022-12-18T17:04:21.376Z,22.08
2022-12-18T17:06:47.761Z,23.27
2022-12-18T17:09:15.701Z,19.93
2022-12-18T17:11:42.800Z,25.30
2022-12-18T17:14:20.537Z,22.92
2022-12-18T17:16:47.221Z,26.65
2022-12-18T17:19:17.265Z,27.35
2022-12-18T17:21:47.390Z,31.73
2022-12-18T17:24:13.772Z,26.38
2022-12-18T17:26:40.178Z,25.15
2022-12-18T17:29:06.601Z,24.02
2022-12-18T17:31:33.667Z,22.95
2022-12-18T17:34:02.121Z,22.07
2022-12-18T17:36:28.888Z,25.17
2022-12-18T17:38:57.644Z,22.17
2022-12-18T17:41:24.793Z,23.83
2022-12-18T17:43:52.547Z,30.17
2022-12-18T17:46:19.585Z,26.60
2022-12-18T17:48:46.597Z,22.85
2022-12-18T17:51:13.878Z,26.45
2022-12-18T17:53:41.045Z,28.40
2022-12-18T17:56:09.915Z,27.80
2022-12-18T17:58:37.003Z,26.13
2022-12-18T18:01:04.258Z,18.33
2022-12-18T18:03:32.226Z,24.30
2022-12-18T18:06:00.383Z,23.30
2022-12-18T18:08:28.069Z,26.40
2022-12-18T18:10:55.701Z,26.93
2022-12-18T18:13:25.720Z,31.08
2022-12-18T18:15:57.076Z,29.58
2022-12-18T18:18:24.095Z,22.55
2022-12-18T18:20:51.169Z,33.03
2022-12-18T18:23:20.214Z,26.37
2022-12-18T18:25:46.697Z,28.48
2022-12-18T18:28:13.124Z,27.88
2022-12-18T18:30:39.668Z,26.13
2022-12-18T18:33:11.678Z,28.10
2022-12-18T18:35:53.932Z,28.33
2022-12-18T18:38:20.954Z,22.80
2022-12-18T18:40:47.246Z,24.75
2022-12-18T18:43:13.545Z,21.38
2022-12-18T18:45:39.979Z,22.35
2022-12-18T18:48:08.143Z,24.60
2022-12-18T18:50:34.427Z,30.52
2022-12-18T18:53:00.758Z,26.25
2022-12-18T18:55:27.050Z,25.30
2022-12-18T18:57:53.331Z,27.95
2022-12-18T19:00:19.653Z,28.30
2022-12-18T19:02:46.278Z,24.88
2022-12-18T19:05:12.652Z,19.65
2022-12-18T19:07:39.310Z,30.08
2022-12-18T19:10:06.346Z,26.05
2022-12-18T19:12:34.421Z,28.13
2022-12-18T19:15:03.379Z,27.95
2022-12-18T19:17:30.722Z,30.70
2022-12-18T19:19:57.937Z,27.50
2022-12-18T19:22:24.286Z,25.98
2022-12-18T19:24:50.608Z,29.53
2022-12-18T19:27:16.929Z,31.15
2022-12-18T19:29:43.214Z,28.17
2022-12-18T19:32:11.034Z,24.80
2022-12-18T19:34:38.746Z,28.13
2022-12-18T19:37:05.357Z,29.33
2022-12-18T19:39:31.845Z,30.58
2022-12-18T19:41:58.215Z,36.78
2022-12-18T19:44:24.620Z,28.23
2022-12-18T19:46:51.033Z,27.42
2022-12-18T19:49:18.183Z,30.10
2022-12-18T19:51:45.108Z,33.35
2022-12-18T19:54:16.393Z,29.63
2022-12-18T19:56:43.895Z,31.98
2022-12-18T19:59:10.308Z,29.15
2022-12-18T20:01:36.830Z,24.53
2022-12-18T20:04:03.450Z,33.45
2022-12-18T20:06:33.746Z,33.10
2022-12-18T20:09:04.517Z,44.03
2022-12-18T20:11:32.587Z,28.73
2022-12-18T20:14:02.192Z,35.73
2022-12-18T20:16:28.998Z,36.72
2022-12-18T20:18:55.900Z,32.75
2022-12-18T20:21:22.261Z,31.65
2022-12-18T20:23:48.678Z,35.63
2022-12-18T20:26:15.239Z,36.67
2022-12-18T20:28:41.876Z,36.28
2022-12-18T20:31:10.447Z,36.83
2022-12-18T20:33:40.608Z,34.50
2022-12-18T20:36:10.594Z,31.45
2022-12-18T20:38:37.216Z,37.77
2022-12-18T20:41:07.425Z,31.65
2022-12-18T20:43:33.872Z,34.60
2022-12-18T20:46:01.904Z,32.97
2022-12-18T20:48:28.801Z,23.27
2022-12-18T20:51:03.984Z,40.27
2022-12-18T20:53:30.642Z,36.05
2022-12-18T20:55:57.001Z,31.40
2022-12-18T20:58:23.604Z,40.40
2022-12-18T21:00:50.222Z,38.83
2022-12-18T21:03:16.779Z,48.33
2022-12-18T21:05:43.126Z,32.42
2022-12-18T21:08:09.693Z,32.90
2022-12-18T21:10:37.920Z,41.28
2022-12-18T21:13:06.089Z,42.58
2022-12-18T21:15:34.193Z,36.23
2022-12-18T21:18:00.699Z,42.45
2022-12-18T21:20:27.391Z,37.38
2022-12-18T21:22:54.877Z,30.27
2022-12-18T21:25:23.710Z,46.45
2022-12-18T21:27:50.025Z,38.27
2022-12-18T21:30:17.122Z,41.13
2022-12-18T21:32:43.586Z,30.88
2022-12-18T21:35:11.042Z,43.42
2022-12-18T21:37:37.402Z,34.75
2022-12-18T21:40:04.869Z,38.17
2022-12-18T21:42:31.148Z,40.90
2022-12-18T21:44:57.754Z,47.15
2022-12-18T21:47:24.028Z,41.58
2022-12-18T21:49:53.203Z,50.45
2022-12-18T21:52:31.347Z,42.27
2022-12-18T21:55:00.729Z,41.35
2022-12-18T21:57:33.822Z,47.50
2022-12-18T22:00:00.126Z,45.15
2022-12-18T22:02:26.718Z,47.63
2022-12-18T22:04:53.223Z,51.27
2022-12-18T22:07:20.408Z,46.35
2022-12-18T22:09:48.917Z,47.22
2022-12-18T22:12:15.238Z,41.33
2022-12-18T22:14:41.512Z,50.78
2022-12-18T22:17:07.811Z,53.20
2022-12-18T22:19:39.494Z,50.50
2022-12-18T22:22:08.943Z,38.20
2022-12-18T22:24:35.361Z,40.95
2022-12-18T22:27:02.580Z,52.60
2022-12-18T22:29:29.308Z,42.90
2022-12-18T22:31:57.343Z,48.30
2022-12-18T22:34:23.621Z,54.03
2022-12-18T22:36:50.551Z,65.20
2022-12-18T22:39:21.076Z,62.22
2022-12-18T22:41:48.166Z,48.47
2022-12-18T22:44:15.215Z,61.83
2022-12-18T22:46:56.241Z,49.63
2022-12-18T22:49:34.908Z,59.08
2022-12-18T22:52:02.697Z,52.08
2022-12-18T22:54:28.992Z,59.23
2022-12-18T22:56:55.327Z,50.97
2022-12-18T22:59:22.860Z,71.25
2022-12-18T23:01:50.628Z,61.28
2022-12-18T23:04:20.524Z,63.05
2022-12-18T23:06:47.446Z,65.40
2022-12-18T23:09:19.241Z,64.60
2022-12-18T23:11:46.416Z,70.15
2022-12-18T23:14:13.175Z,53.92
2022-12-18T23:16:39.658Z,74.25
2022-12-18T23:19:06.042Z,61.17
2022-12-18T23:21:32.462Z,80.38
2022-12-18T23:24:00.368Z,65.18
2022-12-18T23:26:27.283Z,69.88
2022-12-18T23:28:54.068Z,61.67
2022-12-18T23:31:26.042Z,64.00
2022-12-18T23:33:53.689Z,68.03
2022-12-18T23:36:20.880Z,65.40
2022-12-18T23:38:49.553Z,64.90
2022-12-18T23:41:17.486Z,69.43
2022-12-18T23:43:43.822Z,77.37
2022-12-18T23:46:20.239Z,95.60
2022-12-18T23:48:47.202Z,92.38
2022-12-18T23:51:15.784Z,96.30
2022-12-18T23:53:42.590Z,84.85
2022-12-18T23:56:11.177Z,97.50
2022-12-18T23:58:38.493Z,102.35
